sensor_id;sensor_type;location;lat;lon;timestamp;P1;durP1;ratioP1;P2;durP2;ratioP2
30337;SDS011;17143;51.888;5.408;2022-11-15T00:05:44;16.77;;;8.43;;
30337;SDS011;17143;51.888;5.408;2022-11-15T00:21:06;18.03;;;8.80;;
30337;SDS011;17143;51.888;5.408;2022-11-15T00:36:32;16.37;;;8.40;;
30337;SDS011;17143;51.888;5.408;2022-11-15T00:51:52;19.83;;;10.10;;
30337;SDS011;17143;51.888;5.408;2022-11-15T01:07:13;14.93;;;9.13;;
30337;SDS011;17143;51.888;5.408;2022-11-15T01:22:33;19.10;;;9.57;;
30337;SDS011;17143;51.888;5.408;2022-11-15T01:37:54;19.33;;;10.77;;
30337;SDS011;17143;51.888;5.408;2022-11-15T01:53:15;16.33;;;8.87;;
30337;SDS011;17143;51.888;5.408;2022-11-15T02:08:36;11.57;;;7.80;;
30337;SDS011;17143;51.888;5.408;2022-11-15T02:24:00;12.53;;;7.53;;
30337;SDS011;17143;51.888;5.408;2022-11-15T02:39:46;11.53;;;8.00;;
30337;SDS011;17143;51.888;5.408;2022-11-15T03:10:39;14.52;;;7.95;;
30337;SDS011;17143;51.888;5.408;2022-11-15T03:26:07;10.50;;;7.13;;
30337;SDS011;17143;51.888;5.408;2022-11-15T03:41:30;11.73;;;7.80;;
30337;SDS011;17143;51.888;5.408;2022-11-15T03:56:58;12.50;;;8.23;;
30337;SDS011;17143;51.888;5.408;2022-11-15T04:12:19;9.77;;;7.23;;
30337;SDS011;17143;51.888;5.408;2022-11-15T04:27:39;15.17;;;7.67;;
30337;SDS011;17143;51.888;5.408;2022-11-15T04:43:00;12.13;;;7.53;;
30337;SDS011;17143;51.888;5.408;2022-11-15T04:58:21;12.87;;;6.93;;
30337;SDS011;17143;51.888;5.408;2022-11-15T05:13:42;10.53;;;7.17;;
30337;SDS011;17143;51.888;5.408;2022-11-15T05:29:02;11.03;;;7.10;;
30337;SDS011;17143;51.888;5.408;2022-11-15T05:44:23;11.90;;;7.43;;
30337;SDS011;17143;51.888;5.408;2022-11-15T05:59:44;11.90;;;7.03;;
30337;SDS011;17143;51.888;5.408;2022-11-15T06:15:05;11.23;;;7.63;;
30337;SDS011;17143;51.888;5.408;2022-11-15T06:30:26;8.90;;;6.70;;
30337;SDS011;17143;51.888;5.408;2022-11-15T06:45:47;13.13;;;7.67;;
30337;SDS011;17143;51.888;5.408;2022-11-15T07:01:09;9.47;;;7.27;;
30337;SDS011;17143;51.888;5.408;2022-11-15T07:16:31;9.17;;;6.90;;
30337;SDS011;17143;51.888;5.408;2022-11-15T07:31:51;8.10;;;6.07;;
30337;SDS011;17143;51.888;5.408;2022-11-15T07:47:12;11.97;;;5.90;;
30337;SDS011;17143;51.888;5.408;2022-11-15T08:02:32;9.77;;;5.63;;
30337;SDS011;17143;51.888;5.408;2022-11-15T08:17:56;9.60;;;5.93;;
30337;SDS011;17143;51.888;5.408;2022-11-15T08:33:18;10.00;;;7.03;;
30337;SDS011;17143;51.888;5.408;2022-11-15T08:48:38;8.20;;;6.57;;
30337;SDS011;17143;51.888;5.408;2022-11-15T09:03:59;8.23;;;5.40;;
30337;SDS011;17143;51.888;5.408;2022-11-15T09:19:19;5.20;;;3.93;;
30337;SDS011;17143;51.888;5.408;2022-11-15T09:34:40;8.83;;;4.27;;
30337;SDS011;17143;51.888;5.408;2022-11-15T09:50:01;3.37;;;2.90;;
30337;SDS011;17143;51.888;5.408;2022-11-15T10:05:10;4.40;;;2.70;;
30337;SDS011;17143;51.888;5.408;2022-11-15T10:20:21;3.73;;;2.53;;
30337;SDS011;17143;51.888;5.408;2022-11-15T10:35:25;3.77;;;2.57;;
30337;SDS011;17143;51.888;5.408;2022-11-15T10:50:32;3.57;;;2.87;;
30337;SDS011;17143;51.888;5.408;2022-11-15T11:05:35;2.33;;;1.60;;
30337;SDS011;17143;51.888;5.408;2022-11-15T11:20:38;2.97;;;0.87;;
30337;SDS011;17143;51.888;5.408;2022-11-15T11:35:45;2.83;;;1.00;;
30337;SDS011;17143;51.888;5.408;2022-11-15T11:50:53;4.20;;;0.87;;
30337;SDS011;17143;51.888;5.408;2022-11-15T12:06:04;2.50;;;0.90;;
30337;SDS011;17143;51.888;5.408;2022-11-15T12:21:15;2.03;;;0.80;;
30337;SDS011;17143;51.888;5.408;2022-11-15T12:36:35;1.87;;;0.90;;
30337;SDS011;17143;51.888;5.408;2022-11-15T13:07:10;5.37;;;0.90;;
30337;SDS011;17143;51.888;5.408;2022-11-15T13:23:01;3.33;;;1.00;;
30337;SDS011;17143;51.888;5.408;2022-11-15T13:38:19;3.60;;;1.27;;
30337;SDS011;17143;51.888;5.408;2022-11-15T13:53:28;2.67;;;1.20;;
30337;SDS011;17143;51.888;5.408;2022-11-15T14:08:32;5.53;;;2.20;;
30337;SDS011;17143;51.888;5.408;2022-11-15T14:23:34;6.30;;;2.10;;
30337;SDS011;17143;51.888;5.408;2022-11-15T14:38:36;6.43;;;1.70;;
30337;SDS011;17143;51.888;5.408;2022-11-15T14:53:38;5.10;;;1.80;;
30337;SDS011;17143;51.888;5.408;2022-11-15T15:08:41;4.83;;;1.50;;
30337;SDS011;17143;51.888;5.408;2022-11-15T15:23:42;2.73;;;1.13;;
30337;SDS011;17143;51.888;5.408;2022-11-15T15:38:44;3.67;;;1.27;;
30337;SDS011;17143;51.888;5.408;2022-11-15T15:53:47;4.07;;;1.50;;
30337;SDS011;17143;51.888;5.408;2022-11-15T16:08:49;3.37;;;1.70;;
30337;SDS011;17143;51.888;5.408;2022-11-15T16:23:51;6.13;;;2.33;;
30337;SDS011;17143;51.888;5.408;2022-11-15T16:38:53;4.53;;;2.73;;
30337;SDS011;17143;51.888;5.408;2022-11-15T16:53:55;6.07;;;1.40;;
30337;SDS011;17143;51.888;5.408;2022-11-15T17:08:57;3.67;;;1.50;;
30337;SDS011;17143;51.888;5.408;2022-11-15T17:23:59;3.80;;;1.30;;
30337;SDS011;17143;51.888;5.408;2022-11-15T17:39:01;2.83;;;1.70;;
30337;SDS011;17143;51.888;5.408;2022-11-15T17:54:03;2.20;;;1.30;;
30337;SDS011;17143;51.888;5.408;2022-11-15T18:09:05;2.30;;;1.73;;
30337;SDS011;17143;51.888;5.408;2022-11-15T18:24:08;3.13;;;1.90;;
30337;SDS011;17143;51.888;5.408;2022-11-15T18:39:10;5.30;;;2.40;;
30337;SDS011;17143;51.888;5.408;2022-11-15T18:54:13;1.80;;;1.70;;
30337;SDS011;17143;51.888;5.408;2022-11-15T19:09:17;3.17;;;2.20;;
30337;SDS011;17143;51.888;5.408;2022-11-15T19:24:20;2.17;;;1.70;;
30337;SDS011;17143;51.888;5.408;2022-11-15T19:39:22;1.93;;;1.60;;
30337;SDS011;17143;51.888;5.408;2022-11-15T19:54:23;1.80;;;1.70;;
30337;SDS011;17143;51.888;5.408;2022-11-15T20:09:25;2.07;;;1.77;;
30337;SDS011;17143;51.888;5.408;2022-11-15T20:24:27;2.70;;;1.97;;
30337;SDS011;17143;51.888;5.408;2022-11-15T20:39:29;3.77;;;2.57;;
30337;SDS011;17143;51.888;5.408;2022-11-15T20:54:31;2.43;;;2.03;;
30337;SDS011;17143;51.888;5.408;2022-11-15T21:09:33;4.30;;;2.97;;
30337;SDS011;17143;51.888;5.408;2022-11-15T21:24:35;4.00;;;2.60;;
30337;SDS011;17143;51.888;5.408;2022-11-15T21:39:37;5.27;;;3.50;;
30337;SDS011;17143;51.888;5.408;2022-11-15T21:54:39;4.10;;;3.60;;
30337;SDS011;17143;51.888;5.408;2022-11-15T22:09:41;3.70;;;3.00;;
30337;SDS011;17143;51.888;5.408;2022-11-15T22:24:43;4.23;;;3.27;;
30337;SDS011;17143;51.888;5.408;2022-11-15T22:39:45;4.77;;;3.53;;
30337;SDS011;17143;51.888;5.408;2022-11-15T22:54:47;3.27;;;2.53;;
30337;SDS011;17143;51.888;5.408;2022-11-15T23:09:49;3.83;;;3.10;;
30337;SDS011;17143;51.888;5.408;2022-11-15T23:24:51;3.50;;;2.70;;
30337;SDS011;17143;51.888;5.408;2022-11-15T23:39:53;3.87;;;2.60;;
30337;SDS011;17143;51.888;5.408;2022-11-15T23:54:55;5.13;;;2.30;;
